Latest Coastal Weather Observations for Ngayawili (Elcho Island)

IDD60701

Issued at 9:01 am CST Tuesday 23 December 2014 (issued every 10 minutes, with the page automatically refreshed every 10 minutes)

About coastal observations | Map of coastal stations | Coastal observations for NT | Marine services | Other Formats
Station Details ID: 014517 Name: NGAYAWILI Lat: -12.00 Lon: 135.57 Height: 8.1 m
Data from the previous 72 hours. | See also: Recent months at Ngayawili (Elcho Island)
Date/Time
CST
Temp

°C
Wind Pressure Rain
since 9am
mm
Weather Cloud Vis
km
Sea
Height
m
Swell
Dir
 
Speed
knots
Gust
knots
hPa Trend Height
m
Period
s
Dir
23/09:00am 31.2 E 5 7 - - 0.0 - - - - - - -
23/08:30am 30.9 SSE 5 6 - - 0.0 - - - - - - -
23/08:00am 30.3 SE 5 6 - - 0.0 - - - - - - -
23/07:30am 29.5 E 4 6 - - 0.0 - - - - - - -
23/07:00am 27.8 E 4 6 - - 0.0 - - - - - - -
23/06:30am 26.4 E 4 5 - - 0.0 - - - - - - -
23/06:00am 26.3 E 5 6 - - 0.0 - - - - - - -
23/05:30am 26.2 E 4 5 - - 0.0 - - - - - - -
23/05:00am 26.1 E 5 5 - - 0.0 - - - - - - -
23/04:30am 26.1 E 4 5 - - 0.0 - - - - - - -
23/04:00am 26.5 E 5 5 - - 0.0 - - - - - - -
23/03:30am 26.5 E 4 5 - - 0.0 - - - - - - -
23/03:00am 26.5 E 4 4 - - 0.0 - - - - - - -
23/02:30am 27.2 E 4 5 - - 0.0 - - - - - - -
23/02:00am 27.0 E 4 5 - - 0.0 - - - - - - -
23/01:30am 27.3 E 4 5 - - 0.0 - - - - - - -
23/01:00am 27.3 E 4 4 - - 0.0 - - - - - - -
23/12:30am 27.7 E 4 4 - - 0.0 - - - - - - -
23/12:00am 28.3 ENE 4 6 - - 0.0 - - - - - - -
 
Date/Time
CST
Temp

°C
Wind Pressure Rain
since 9am
mm
Weather Cloud Vis
km
Sea
Height
m
Swell
Dir
 
Speed
knots
Gust
knots
hPa Trend Height
m
Period
s
Dir
22/11:30pm 28.5 ENE 4 6 - - 0.0 - - - - - - -
22/11:00pm 28.8 ENE 5 7 - - 0.0 - - - - - - -
22/10:30pm 28.7 E 5 7 - - 0.0 - - - - - - -
22/10:00pm 28.8 E 3 5 - - 0.0 - - - - - - -
22/09:30pm 29.1 E 4 6 - - 0.0 - - - - - - -
22/09:00pm 29.4 E 5 7 - - 0.0 - - - - - - -
22/08:30pm 29.6 NE 4 4 - - 0.0 - - - - - - -
22/08:00pm 30.0 NE 5 6 - - 0.0 - - - - - - -
22/07:30pm 30.2 NE 5 6 - - 0.0 - - - - - - -
22/07:00pm 30.7 NNE 7 11 - - 0.0 - - - - - - -
22/06:30pm 31.2 NNE 10 13 - - 0.0 - - - - - - -
22/06:00pm 31.8 N 11 13 - - 0.0 - - - - - - -
22/05:30pm 32.3 N 11 13 - - 0.0 - - - - - - -
22/05:00pm 32.1 N 11 14 - - 0.0 - - - - - - -
22/04:30pm 32.2 N 12 14 - - 0.0 - - - - - - -
22/04:00pm 33.5 N 13 16 - - 0.0 - - - - - - -
22/03:30pm 33.5 N 13 16 - - 0.0 - - - - - - -
22/03:00pm 34.0 N 12 14 - - 0.0 - - - - - - -
22/02:30pm 32.9 N 12 14 - - 0.0 - - - - - - -
22/02:00pm 33.4 N 13 15 - - 0.0 - - - - - - -
22/01:30pm 33.2 N 11 14 - - 0.0 - - - - - - -
22/01:00pm 33.1 N 9 11 - - 0.0 - - - - - - -
22/12:30pm 32.1 N 11 13 - - 0.0 - - - - - - -
22/12:00pm 32.7 NW 8 9 - - 0.0 - - - - - - -
22/11:30am 32.6 NNW 7 9 - - 0.0 - - - - - - -
22/11:00am 31.5 WNW 7 9 - - 0.0 - - - - - - -
22/10:30am 31.9 WNW 6 8 - - 0.0 - - - - - - -
22/10:00am 31.1 WNW 6 7 - - 0.0 - - - - - - -
22/09:30am 31.5 SE 5 6 - - 0.0 - - - - - - -
22/09:00am 31.2 SE 5 6 - - 0.0 - - - - - - -
22/08:30am 31.7 SE 4 5 - - 0.0 - - - - - - -
22/08:00am 31.3 SE 4 5 - - 0.0 - - - - - - -
22/07:30am 30.3 E 4 5 - - 0.0 - - - - - - -
22/07:00am 28.5 E 4 5 - - 0.0 - - - - - - -
22/06:30am 26.3 E 5 6 - - 0.0 - - - - - - -
22/06:00am 25.8 NE 4 4 - - 0.0 - - - - - - -
22/05:30am 26.1 NE 5 6 - - 0.0 - - - - - - -
22/05:00am 26.8 NE 5 6 - - 0.0 - - - - - - -
22/04:30am 27.5 NE 6 8 - - 0.0 - - - - - - -
22/04:00am 27.2 NE 6 7 - - 0.0 - - - - - - -
22/03:30am 27.3 NE 5 7 - - 0.0 - - - - - - -
22/03:00am 27.4 NE 6 7 - - 0.0 - - - - - - -
22/02:30am 26.6 ENE 5 6 - - 0.0 - - - - - - -
22/02:00am 26.6 ENE 5 6 - - 0.0 - - - - - - -
22/01:30am 26.7 ENE 4 5 - - 0.0 - - - - - - -
22/01:00am 27.5 ENE 5 6 - - 0.0 - - - - - - -
22/12:30am 27.6 ENE 5 6 - - 0.0 - - - - - - -
22/12:00am 27.4 NE 4 5 - - 0.0 - - - - - - -
 
Date/Time
CST
Temp

°C
Wind Pressure Rain
since 9am
mm
Weather Cloud Vis
km
Sea
Height
m
Swell
Dir
 
Speed
knots
Gust
knots
hPa Trend Height
m
Period
s
Dir
21/11:30pm 26.9 NE 4 5 - - 0.0 - - - - - - -
21/11:00pm 27.1 NE 4 5 - - 0.0 - - - - - - -
21/10:30pm 28.0 NE 4 6 - - 0.0 - - - - - - -
21/10:00pm 28.4 NE 5 7 - - 0.0 - - - - - - -
21/09:30pm 28.5 NE 6 6 - - 0.0 - - - - - - -
21/09:00pm 28.9 NNE 4 5 - - 0.0 - - - - - - -
21/08:30pm 29.3 N 5 7 - - 0.0 - - - - - - -
21/08:00pm 29.8 NNE 6 8 - - 0.0 - - - - - - -
21/07:30pm 30.5 N 8 11 - - 0.0 - - - - - - -
21/07:00pm 30.7 N 10 12 - - 0.0 - - - - - - -
21/06:30pm 30.9 N 10 11 - - 0.0 - - - - - - -
21/06:00pm 31.5 N 11 13 - - 0.0 - - - - - - -
21/05:30pm 31.8 N 9 10 - - 0.0 - - - - - - -
21/05:00pm 32.1 NNW 8 9 - - 0.0 - - - - - - -
21/04:30pm 32.5 NNW 8 10 - - 0.0 - - - - - - -
21/04:00pm 32.9 NNW 8 9 - - 0.0 - - - - - - -
21/03:30pm 33.1 NNW 8 11 - - 0.0 - - - - - - -
21/03:00pm 33.2 NNW 9 10 - - 0.0 - - - - - - -
21/02:30pm 33.7 NNW 9 10 - - 0.0 - - - - - - -
21/02:00pm 33.5 NW 8 10 - - 0.0 - - - - - - -
21/01:30pm 33.1 NW 9 11 - - 0.0 - - - - - - -
21/01:00pm 33.2 NW 9 11 - - 0.0 - - - - - - -
21/12:30pm 33.3 NW 9 11 - - 0.0 - - - - - - -
21/12:00pm 33.5 NNW 8 10 - - 0.0 - - - - - - -
21/11:30am 33.2 NW 8 9 - - 0.0 - - - - - - -
21/11:00am 32.3 NW 6 8 - - 0.0 - - - - - - -
21/10:30am 32.8 NW 7 9 - - 0.0 - - - - - - -
21/10:00am 32.4 NW 7 9 - - 0.0 - - - - - - -
21/09:30am 32.3 NW 7 9 - - 0.0 - - - - - - -
21/09:00am 31.5 NW 7 9 - - 0.0 - - - - - - -
21/08:30am 31.3 NW 7 8 - - 0.0 - - - - - - -
21/08:00am 30.8 NW 7 9 - - 0.0 - - - - - - -
21/07:30am 30.7 NNW 8 9 - - 0.0 - - - - - - -
21/07:00am 30.3 NNW 6 8 - - 0.0 - - - - - - -
21/06:30am 29.9 NNW 8 9 - - 0.0 - - - - - - -
21/06:00am 29.9 NNW 8 10 - - 0.0 - - - - - - -
21/05:30am 29.7 N 8 9 - - 0.0 - - - - - - -
21/05:00am 29.8 N 9 11 - - 0.0 - - - - - - -
21/04:30am 29.7 N 10 12 - - 0.0 - - - - - - -
21/04:00am 28.5 N 5 7 - - 0.0 - - - - - - -
21/03:30am 29.7 N 8 9 - - 0.0 - - - - - - -
21/03:00am 29.8 N 9 11 - - 0.0 - - - - - - -
21/02:30am 29.7 N 8 10 - - 0.0 - - - - - - -
21/02:00am 29.7 N 8 10 - - 0.0 - - - - - - -
21/01:30am 29.8 N 9 11 - - 0.0 - - - - - - -
21/01:00am 29.9 N 8 11 - - 0.0 - - - - - - -
21/12:30am 30.0 N 9 11 - - 0.0 - - - - - - -
21/12:00am 30.1 N 8 11 - - 0.0 - - - - - - -
 
Date/Time
CST
Temp

°C
Wind Pressure Rain
since 9am
mm
Weather Cloud Vis
km
Sea
Height
m
Swell
Dir
 
Speed
knots
Gust
knots
hPa Trend Height
m
Period
s
Dir
20/11:30pm 30.0 N 8 11 - - 0.0 - - - - - - -
20/11:00pm 30.2 N 8 10 - - 0.0 - - - - - - -
20/10:30pm 30.2 N 10 11 - - 0.0 - - - - - - -
20/10:00pm 30.3 N 10 12 - - 0.0 - - - - - - -
20/09:30pm 30.3 N 9 11 - - 0.0 - - - - - - -
20/09:00pm 30.4 N 9 11 - - 0.0 - - - - - - -
20/08:30pm 30.3 N 7 9 - - 0.0 - - - - - - -
20/08:00pm 30.3 N 7 9 - - 0.0 - - - - - - -
20/07:30pm 30.6 N 9 11 - - 0.0 - - - - - - -
20/07:00pm 30.6 N 9 11 - - 0.0 - - - - - - -
20/06:30pm 30.9 N 9 11 - - 0.0 - - - - - - -
20/06:00pm 31.1 N 9 11 - - 0.0 - - - - - - -
20/05:30pm 31.3 N 8 11 - - 0.0 - - - - - - -
20/05:00pm 31.8 N 9 11 - - 0.0 - - - - - - -
20/04:30pm 31.9 NNW 10 11 - - 0.0 - - - - - - -
20/04:00pm 32.6 NNW 12 14 - - 0.0 - - - - - - -
20/03:30pm 33.5 NNW 13 15 - - 0.0 - - - - - - -
20/03:00pm 34.0 NNW 13 15 - - 0.0 - - - - - - -
20/02:30pm 33.6 NW 11 13 - - 0.0 - - - - - - -
20/02:00pm 33.8 NW 10 11 - - 0.0 - - - - - - -
20/01:30pm 33.4 NW 9 11 - - 0.0 - - - - - - -
20/01:00pm 33.3 NW 9 11 - - 0.0 - - - - - - -
20/12:30pm 33.5 WNW 9 11 - - 0.0 - - - - - - -
20/12:00pm 33.4 WNW 8 10 - - 0.0 - - - - - - -
20/11:30am 33.5 W 8 10 - - 0.0 - - - - - - -
20/11:00am 33.2 W 8 11 - - 0.0 - - - - - - -
20/10:30am 33.1 W 8 9 - - 0.0 - - - - - - -
20/10:00am 33.0 W 7 9 - - 0.0 - - - - - - -
20/09:30am 32.3 W 6 9 - - 0.0 - - - - - - -

Other Formats:

Comma delimited format used in spreadsheet applications
http://www.bom.gov.au/fwo/IDD60701/IDD60701.95146.axf

JavaScript Object Notation format (JSON) in row-major order
http://www.bom.gov.au/fwo/IDD60701/IDD60701.95146.json